sensor_id;sensor_type;location;lat;lon;timestamp;temperature;humidity
33023;DHT22;19390;51.460;5.710;2023-04-29T00:01:23;11.00;99.90
33023;DHT22;19390;51.460;5.710;2023-04-29T00:03:49;11.00;99.90
33023;DHT22;19390;51.460;5.710;2023-04-29T00:06:14;10.90;99.90
33023;DHT22;19390;51.460;5.710;2023-04-29T00:08:41;10.90;99.90
33023;DHT22;19390;51.460;5.710;2023-04-29T00:11:06;10.90;99.90
33023;DHT22;19390;51.460;5.710;2023-04-29T00:13:32;10.70;99.90
33023;DHT22;19390;51.460;5.710;2023-04-29T00:15:57;10.70;99.90
33023;DHT22;19390;51.460;5.710;2023-04-29T00:18:23;10.70;99.90
33023;DHT22;19390;51.460;5.710;2023-04-29T00:20:48;10.70;99.90
33023;DHT22;19390;51.460;5.710;2023-04-29T00:23:14;10.70;99.90
33023;DHT22;19390;51.460;5.710;2023-04-29T00:25:40;10.60;99.90
33023;DHT22;19390;51.460;5.710;2023-04-29T00:28:05;10.60;99.90
33023;DHT22;19390;51.460;5.710;2023-04-29T00:30:31;10.70;99.90
33023;DHT22;19390;51.460;5.710;2023-04-29T00:32:58;10.60;99.90
33023;DHT22;19390;51.460;5.710;2023-04-29T00:35:24;10.60;99.90
33023;DHT22;19390;51.460;5.710;2023-04-29T00:37:50;10.70;99.90
33023;DHT22;19390;51.460;5.710;2023-04-29T00:40:15;10.50;99.90
33023;DHT22;19390;51.460;5.710;2023-04-29T00:42:42;10.40;99.90
33023;DHT22;19390;51.460;5.710;2023-04-29T00:45:08;10.40;99.90
33023;DHT22;19390;51.460;5.710;2023-04-29T00:47:36;10.40;99.90
33023;DHT22;19390;51.460;5.710;2023-04-29T00:50:01;10.50;99.90
33023;DHT22;19390;51.460;5.710;2023-04-29T00:52:29;10.50;99.90
33023;DHT22;19390;51.460;5.710;2023-04-29T00:54:56;10.40;99.90
33023;DHT22;19390;51.460;5.710;2023-04-29T00:57:22;10.30;99.90
33023;DHT22;19390;51.460;5.710;2023-04-29T00:59:48;10.20;99.90
33023;DHT22;19390;51.460;5.710;2023-04-29T01:02:14;10.20;99.90
33023;DHT22;19390;51.460;5.710;2023-04-29T01:04:40;10.20;99.90
33023;DHT22;19390;51.460;5.710;2023-04-29T01:10:26;10.30;99.90
33023;DHT22;19390;51.460;5.710;2023-04-29T01:12:56;10.20;99.90
33023;DHT22;19390;51.460;5.710;2023-04-29T01:15:34;10.10;99.90
33023;DHT22;19390;51.460;5.710;2023-04-29T01:18:17;10.10;99.90
33023;DHT22;19390;51.460;5.710;2023-04-29T01:20:45;10.20;99.90
33023;DHT22;19390;51.460;5.710;2023-04-29T01:23:10;10.10;99.90
33023;DHT22;19390;51.460;5.710;2023-04-29T01:25:36;10.10;99.90
33023;DHT22;19390;51.460;5.710;2023-04-29T01:36:15;10.10;99.90
33023;DHT22;19390;51.460;5.710;2023-04-29T01:41:41;9.90;99.90
33023;DHT22;19390;51.460;5.710;2023-04-29T01:44:12;9.90;99.90
33023;DHT22;19390;51.460;5.710;2023-04-29T01:46:38;9.90;99.90
33023;DHT22;19390;51.460;5.710;2023-04-29T01:49:06;9.90;99.90
33023;DHT22;19390;51.460;5.710;2023-04-29T01:51:32;9.90;99.90
33023;DHT22;19390;51.460;5.710;2023-04-29T01:53:58;9.90;99.90
33023;DHT22;19390;51.460;5.710;2023-04-29T01:56:23;9.80;99.90
33023;DHT22;19390;51.460;5.710;2023-04-29T01:58:49;9.90;99.90
33023;DHT22;19390;51.460;5.710;2023-04-29T02:01:15;9.80;99.90
33023;DHT22;19390;51.460;5.710;2023-04-29T02:03:41;9.90;99.90
33023;DHT22;19390;51.460;5.710;2023-04-29T02:06:07;9.90;99.90
33023;DHT22;19390;51.460;5.710;2023-04-29T02:08:32;9.90;99.90
33023;DHT22;19390;51.460;5.710;2023-04-29T02:10:58;9.90;99.90
33023;DHT22;19390;51.460;5.710;2023-04-29T02:13:24;9.90;99.90
33023;DHT22;19390;51.460;5.710;2023-04-29T02:15:50;9.90;99.90
33023;DHT22;19390;51.460;5.710;2023-04-29T02:18:15;9.90;99.90
33023;DHT22;19390;51.460;5.710;2023-04-29T02:20:41;10.00;99.90
33023;DHT22;19390;51.460;5.710;2023-04-29T02:23:07;9.90;99.90
33023;DHT22;19390;51.460;5.710;2023-04-29T02:25:33;9.90;99.90
33023;DHT22;19390;51.460;5.710;2023-04-29T02:27:59;9.90;99.90
33023;DHT22;19390;51.460;5.710;2023-04-29T02:30:24;10.00;99.90
33023;DHT22;19390;51.460;5.710;2023-04-29T02:32:50;10.00;99.90
33023;DHT22;19390;51.460;5.710;2023-04-29T02:35:15;10.00;99.90
33023;DHT22;19390;51.460;5.710;2023-04-29T02:37:41;10.00;99.90
33023;DHT22;19390;51.460;5.710;2023-04-29T02:40:07;10.00;99.90
33023;DHT22;19390;51.460;5.710;2023-04-29T02:42:33;10.00;99.90
33023;DHT22;19390;51.460;5.710;2023-04-29T02:44:58;10.00;99.90
33023;DHT22;19390;51.460;5.710;2023-04-29T02:47:24;10.00;99.90
33023;DHT22;19390;51.460;5.710;2023-04-29T02:49:49;10.00;99.90
33023;DHT22;19390;51.460;5.710;2023-04-29T02:52:15;10.00;99.90
33023;DHT22;19390;51.460;5.710;2023-04-29T02:54:44;10.00;99.90
33023;DHT22;19390;51.460;5.710;2023-04-29T02:57:09;10.00;99.90
33023;DHT22;19390;51.460;5.710;2023-04-29T02:59:35;10.10;99.90
33023;DHT22;19390;51.460;5.710;2023-04-29T03:02:01;10.10;99.90
33023;DHT22;19390;51.460;5.710;2023-04-29T03:04:27;10.10;99.90
33023;DHT22;19390;51.460;5.710;2023-04-29T03:06:54;10.10;99.90
33023;DHT22;19390;51.460;5.710;2023-04-29T03:09:21;10.20;99.90
33023;DHT22;19390;51.460;5.710;2023-04-29T03:11:48;10.20;99.90
33023;DHT22;19390;51.460;5.710;2023-04-29T03:14:13;10.10;99.90
33023;DHT22;19390;51.460;5.710;2023-04-29T03:16:39;10.20;99.90
33023;DHT22;19390;51.460;5.710;2023-04-29T03:19:04;10.20;99.90
33023;DHT22;19390;51.460;5.710;2023-04-29T03:21:30;10.20;99.90
33023;DHT22;19390;51.460;5.710;2023-04-29T03:23:57;10.20;99.90
33023;DHT22;19390;51.460;5.710;2023-04-29T03:26:22;10.20;99.90
33023;DHT22;19390;51.460;5.710;2023-04-29T03:28:49;10.20;99.90
33023;DHT22;19390;51.460;5.710;2023-04-29T03:31:14;10.20;99.90
33023;DHT22;19390;51.460;5.710;2023-04-29T03:33:41;10.20;99.90
33023;DHT22;19390;51.460;5.710;2023-04-29T03:36:06;10.20;99.90
33023;DHT22;19390;51.460;5.710;2023-04-29T03:38:33;10.20;99.90
33023;DHT22;19390;51.460;5.710;2023-04-29T03:40:59;10.20;99.90
33023;DHT22;19390;51.460;5.710;2023-04-29T03:43:25;10.20;99.90
33023;DHT22;19390;51.460;5.710;2023-04-29T03:45:51;10.20;99.90
33023;DHT22;19390;51.460;5.710;2023-04-29T03:48:17;10.20;99.90
33023;DHT22;19390;51.460;5.710;2023-04-29T03:50:42;10.20;99.90
33023;DHT22;19390;51.460;5.710;2023-04-29T03:53:08;10.20;99.90
33023;DHT22;19390;51.460;5.710;2023-04-29T03:55:34;10.20;99.90
33023;DHT22;19390;51.460;5.710;2023-04-29T03:57:59;10.20;99.90
33023;DHT22;19390;51.460;5.710;2023-04-29T04:00:25;10.20;99.90
33023;DHT22;19390;51.460;5.710;2023-04-29T04:02:51;10.20;99.90
33023;DHT22;19390;51.460;5.710;2023-04-29T04:05:17;10.20;99.90
33023;DHT22;19390;51.460;5.710;2023-04-29T04:07:45;10.30;99.90
33023;DHT22;19390;51.460;5.710;2023-04-29T04:10:11;10.30;99.90
33023;DHT22;19390;51.460;5.710;2023-04-29T04:12:37;10.30;99.90
33023;DHT22;19390;51.460;5.710;2023-04-29T04:15:02;10.20;99.90
33023;DHT22;19390;51.460;5.710;2023-04-29T04:17:28;10.20;99.90
33023;DHT22;19390;51.460;5.710;2023-04-29T04:19:54;10.30;99.90
33023;DHT22;19390;51.460;5.710;2023-04-29T04:22:20;10.30;99.90
33023;DHT22;19390;51.460;5.710;2023-04-29T04:24:45;10.30;99.90
33023;DHT22;19390;51.460;5.710;2023-04-29T04:27:11;10.30;99.90
33023;DHT22;19390;51.460;5.710;2023-04-29T04:29:37;10.30;99.90
33023;DHT22;19390;51.460;5.710;2023-04-29T04:32:04;10.30;99.90
33023;DHT22;19390;51.460;5.710;2023-04-29T04:34:29;10.30;99.90
33023;DHT22;19390;51.460;5.710;2023-04-29T04:36:55;10.30;99.90
33023;DHT22;19390;51.460;5.710;2023-04-29T04:39:21;10.30;99.90
33023;DHT22;19390;51.460;5.710;2023-04-29T04:41:46;10.30;99.90
33023;DHT22;19390;51.460;5.710;2023-04-29T04:44:12;10.30;99.90
33023;DHT22;19390;51.460;5.710;2023-04-29T04:46:38;10.30;99.90
33023;DHT22;19390;51.460;5.710;2023-04-29T04:49:04;10.30;99.90
33023;DHT22;19390;51.460;5.710;2023-04-29T04:51:30;10.30;99.90
33023;DHT22;19390;51.460;5.710;2023-04-29T04:53:55;10.30;99.90
33023;DHT22;19390;51.460;5.710;2023-04-29T04:56:21;10.30;99.90
33023;DHT22;19390;51.460;5.710;2023-04-29T04:58:47;10.30;99.90
33023;DHT22;19390;51.460;5.710;2023-04-29T05:01:12;10.30;99.90
33023;DHT22;19390;51.460;5.710;2023-04-29T05:03:38;10.30;99.90
33023;DHT22;19390;51.460;5.710;2023-04-29T05:06:03;10.30;99.90
33023;DHT22;19390;51.460;5.710;2023-04-29T05:08:29;10.30;99.90
33023;DHT22;19390;51.460;5.710;2023-04-29T05:10:55;10.30;99.90
33023;DHT22;19390;51.460;5.710;2023-04-29T05:13:21;10.30;99.90
33023;DHT22;19390;51.460;5.710;2023-04-29T05:15:46;10.30;99.90
33023;DHT22;19390;51.460;5.710;2023-04-29T05:18:12;10.30;99.90
33023;DHT22;19390;51.460;5.710;2023-04-29T05:20:38;10.30;99.90
33023;DHT22;19390;51.460;5.710;2023-04-29T05:23:03;10.40;99.90
33023;DHT22;19390;51.460;5.710;2023-04-29T05:25:29;10.40;99.90
33023;DHT22;19390;51.460;5.710;2023-04-29T05:27:54;10.30;99.90
33023;DHT22;19390;51.460;5.710;2023-04-29T05:30:20;10.30;99.90
33023;DHT22;19390;51.460;5.710;2023-04-29T05:32:46;10.40;99.90
33023;DHT22;19390;51.460;5.710;2023-04-29T05:35:13;10.40;99.90
33023;DHT22;19390;51.460;5.710;2023-04-29T05:37:38;10.40;99.90
33023;DHT22;19390;51.460;5.710;2023-04-29T05:40:04;10.30;99.90
33023;DHT22;19390;51.460;5.710;2023-04-29T05:42:30;10.30;99.90
33023;DHT22;19390;51.460;5.710;2023-04-29T05:44:56;10.30;99.90
33023;DHT22;19390;51.460;5.710;2023-04-29T05:47:21;10.30;99.90
33023;DHT22;19390;51.460;5.710;2023-04-29T05:49:47;10.30;99.90
33023;DHT22;19390;51.460;5.710;2023-04-29T05:52:13;10.30;99.90
33023;DHT22;19390;51.460;5.710;2023-04-29T05:54:39;10.30;99.90
33023;DHT22;19390;51.460;5.710;2023-04-29T05:57:04;10.40;99.90
33023;DHT22;19390;51.460;5.710;2023-04-29T05:59:31;10.30;99.90
33023;DHT22;19390;51.460;5.710;2023-04-29T06:01:57;10.30;99.90
33023;DHT22;19390;51.460;5.710;2023-04-29T06:04:23;10.40;99.90
33023;DHT22;19390;51.460;5.710;2023-04-29T06:06:53;10.40;99.90
33023;DHT22;19390;51.460;5.710;2023-04-29T06:09:19;10.40;99.90
33023;DHT22;19390;51.460;5.710;2023-04-29T06:11:45;10.30;99.90
33023;DHT22;19390;51.460;5.710;2023-04-29T06:14:11;10.30;99.90
33023;DHT22;19390;51.460;5.710;2023-04-29T06:16:36;10.30;99.90
33023;DHT22;19390;51.460;5.710;2023-04-29T06:19:02;10.40;99.90
33023;DHT22;19390;51.460;5.710;2023-04-29T06:21:28;10.30;99.90
33023;DHT22;19390;51.460;5.710;2023-04-29T06:23:54;10.30;99.90
33023;DHT22;19390;51.460;5.710;2023-04-29T06:26:19;10.40;99.90
33023;DHT22;19390;51.460;5.710;2023-04-29T06:28:49;10.40;99.90
33023;DHT22;19390;51.460;5.710;2023-04-29T06:31:14;10.30;99.90
33023;DHT22;19390;51.460;5.710;2023-04-29T06:33:40;10.40;99.90
33023;DHT22;19390;51.460;5.710;2023-04-29T06:36:06;10.30;99.90
33023;DHT22;19390;51.460;5.710;2023-04-29T06:38:32;10.40;99.90
33023;DHT22;19390;51.460;5.710;2023-04-29T06:40:57;10.40;99.90
33023;DHT22;19390;51.460;5.710;2023-04-29T06:43:28;10.30;99.90
33023;DHT22;19390;51.460;5.710;2023-04-29T06:45:54;10.40;99.90
33023;DHT22;19390;51.460;5.710;2023-04-29T06:48:20;10.40;99.90
33023;DHT22;19390;51.460;5.710;2023-04-29T06:50:50;10.40;99.90
33023;DHT22;19390;51.460;5.710;2023-04-29T06:53:17;10.40;99.90
33023;DHT22;19390;51.460;5.710;2023-04-29T06:55:42;10.40;99.90
33023;DHT22;19390;51.460;5.710;2023-04-29T06:58:09;10.50;99.90
33023;DHT22;19390;51.460;5.710;2023-04-29T07:00:34;10.50;99.90
33023;DHT22;19390;51.460;5.710;2023-04-29T07:03:01;10.60;99.90
33023;DHT22;19390;51.460;5.710;2023-04-29T07:05:26;10.70;99.90
33023;DHT22;19390;51.460;5.710;2023-04-29T07:07:52;10.80;99.90
33023;DHT22;19390;51.460;5.710;2023-04-29T07:10:17;10.90;99.90
33023;DHT22;19390;51.460;5.710;2023-04-29T07:12:43;11.10;99.90
33023;DHT22;19390;51.460;5.710;2023-04-29T07:15:09;11.10;99.90
33023;DHT22;19390;51.460;5.710;2023-04-29T07:17:34;11.00;99.90
33023;DHT22;19390;51.460;5.710;2023-04-29T07:20:00;11.10;99.90
33023;DHT22;19390;51.460;5.710;2023-04-29T07:22:26;11.00;99.90
33023;DHT22;19390;51.460;5.710;2023-04-29T07:24:55;11.00;99.90
33023;DHT22;19390;51.460;5.710;2023-04-29T07:27:21;10.80;99.90
33023;DHT22;19390;51.460;5.710;2023-04-29T07:29:47;10.80;99.90
33023;DHT22;19390;51.460;5.710;2023-04-29T07:32:13;11.10;99.90
33023;DHT22;19390;51.460;5.710;2023-04-29T07:34:40;11.20;99.90
33023;DHT22;19390;51.460;5.710;2023-04-29T07:37:05;11.00;99.90
33023;DHT22;19390;51.460;5.710;2023-04-29T07:39:31;11.10;99.90
33023;DHT22;19390;51.460;5.710;2023-04-29T07:41:57;11.20;99.90
33023;DHT22;19390;51.460;5.710;2023-04-29T07:44:24;11.30;99.90
33023;DHT22;19390;51.460;5.710;2023-04-29T07:46:50;11.30;99.90
33023;DHT22;19390;51.460;5.710;2023-04-29T07:49:15;11.40;99.90
33023;DHT22;19390;51.460;5.710;2023-04-29T07:51:41;11.70;99.90
33023;DHT22;19390;51.460;5.710;2023-04-29T07:54:07;11.60;99.90
33023;DHT22;19390;51.460;5.710;2023-04-29T07:56:33;11.90;99.90
33023;DHT22;19390;51.460;5.710;2023-04-29T07:58:59;12.10;99.90
33023;DHT22;19390;51.460;5.710;2023-04-29T08:01:26;12.20;99.90
33023;DHT22;19390;51.460;5.710;2023-04-29T08:03:51;12.00;99.90
33023;DHT22;19390;51.460;5.710;2023-04-29T08:06:17;12.20;99.90
33023;DHT22;19390;51.460;5.710;2023-04-29T08:08:45;11.80;99.90
33023;DHT22;19390;51.460;5.710;2023-04-29T08:11:17;11.80;99.90
33023;DHT22;19390;51.460;5.710;2023-04-29T08:13:44;11.70;99.90
33023;DHT22;19390;51.460;5.710;2023-04-29T08:16:10;11.80;99.90
33023;DHT22;19390;51.460;5.710;2023-04-29T08:18:36;11.90;99.90
33023;DHT22;19390;51.460;5.710;2023-04-29T08:21:01;11.70;99.90
33023;DHT22;19390;51.460;5.710;2023-04-29T08:23:28;11.60;99.90
33023;DHT22;19390;51.460;5.710;2023-04-29T08:25:53;11.80;99.90
33023;DHT22;19390;51.460;5.710;2023-04-29T08:28:20;11.70;99.90
33023;DHT22;19390;51.460;5.710;2023-04-29T08:30:46;11.60;99.90
33023;DHT22;19390;51.460;5.710;2023-04-29T08:33:12;12.10;99.90
33023;DHT22;19390;51.460;5.710;2023-04-29T08:35:39;12.20;99.90
33023;DHT22;19390;51.460;5.710;2023-04-29T08:38:05;12.30;99.90
33023;DHT22;19390;51.460;5.710;2023-04-29T08:40:34;12.80;99.90
33023;DHT22;19390;51.460;5.710;2023-04-29T08:43:02;12.50;99.90
33023;DHT22;19390;51.460;5.710;2023-04-29T08:45:29;12.90;99.90
33023;DHT22;19390;51.460;5.710;2023-04-29T08:47:56;13.20;99.90
33023;DHT22;19390;51.460;5.710;2023-04-29T08:50:23;13.40;99.90
33023;DHT22;19390;51.460;5.710;2023-04-29T08:52:49;13.30;99.90
33023;DHT22;19390;51.460;5.710;2023-04-29T08:55:16;12.90;99.90
33023;DHT22;19390;51.460;5.710;2023-04-29T08:57:43;12.60;99.90
33023;DHT22;19390;51.460;5.710;2023-04-29T09:00:11;12.40;99.90
33023;DHT22;19390;51.460;5.710;2023-04-29T09:02:44;12.70;99.90
33023;DHT22;19390;51.460;5.710;2023-04-29T09:05:11;12.90;99.90
33023;DHT22;19390;51.460;5.710;2023-04-29T09:07:37;13.30;99.90
33023;DHT22;19390;51.460;5.710;2023-04-29T09:10:04;13.90;99.90
33023;DHT22;19390;51.460;5.710;2023-04-29T09:12:30;13.80;99.90
33023;DHT22;19390;51.460;5.710;2023-04-29T09:14:56;13.60;99.90
33023;DHT22;19390;51.460;5.710;2023-04-29T09:17:45;13.40;99.90
33023;DHT22;19390;51.460;5.710;2023-04-29T09:20:25;13.10;99.90
33023;DHT22;19390;51.460;5.710;2023-04-29T09:23:00;13.10;99.90
33023;DHT22;19390;51.460;5.710;2023-04-29T09:25:26;13.10;99.90
33023;DHT22;19390;51.460;5.710;2023-04-29T09:27:53;13.10;99.90
33023;DHT22;19390;51.460;5.710;2023-04-29T09:30:19;13.30;99.90
33023;DHT22;19390;51.460;5.710;2023-04-29T09:32:53;13.30;99.90
33023;DHT22;19390;51.460;5.710;2023-04-29T09:35:27;13.30;99.90
33023;DHT22;19390;51.460;5.710;2023-04-29T09:37:54;13.20;99.90
33023;DHT22;19390;51.460;5.710;2023-04-29T09:40:33;13.30;99.90
33023;DHT22;19390;51.460;5.710;2023-04-29T09:42:59;14.00;99.90
33023;DHT22;19390;51.460;5.710;2023-04-29T09:45:43;14.40;99.90
33023;DHT22;19390;51.460;5.710;2023-04-29T09:48:10;15.00;99.90
33023;DHT22;19390;51.460;5.710;2023-04-29T09:50:38;14.80;99.90
33023;DHT22;19390;51.460;5.710;2023-04-29T09:53:09;15.30;99.90
33023;DHT22;19390;51.460;5.710;2023-04-29T09:58:33;16.20;99.90
33023;DHT22;19390;51.460;5.710;2023-04-29T10:01:03;16.30;99.90
33023;DHT22;19390;51.460;5.710;2023-04-29T10:03:34;16.00;99.90
33023;DHT22;19390;51.460;5.710;2023-04-29T10:06:02;15.30;99.90
33023;DHT22;19390;51.460;5.710;2023-04-29T10:08:31;14.90;99.90
33023;DHT22;19390;51.460;5.710;2023-04-29T10:11:02;15.20;99.90
33023;DHT22;19390;51.460;5.710;2023-04-29T10:13:28;15.10;99.90
33023;DHT22;19390;51.460;5.710;2023-04-29T10:18:51;15.00;99.90
33023;DHT22;19390;51.460;5.710;2023-04-29T10:21:20;15.60;99.90
33023;DHT22;19390;51.460;5.710;2023-04-29T10:23:49;16.60;99.90
33023;DHT22;19390;51.460;5.710;2023-04-29T10:26:15;15.70;99.90
33023;DHT22;19390;51.460;5.710;2023-04-29T10:28:43;14.80;99.90
33023;DHT22;19390;51.460;5.710;2023-04-29T10:31:11;15.00;99.90
33023;DHT22;19390;51.460;5.710;2023-04-29T10:33:39;17.50;99.90
33023;DHT22;19390;51.460;5.710;2023-04-29T10:36:08;19.80;99.90
33023;DHT22;19390;51.460;5.710;2023-04-29T10:38:38;18.30;99.90
33023;DHT22;19390;51.460;5.710;2023-04-29T10:41:16;17.70;99.90
33023;DHT22;19390;51.460;5.710;2023-04-29T10:43:43;17.10;99.90
33023;DHT22;19390;51.460;5.710;2023-04-29T10:46:16;16.80;99.90
33023;DHT22;19390;51.460;5.710;2023-04-29T10:48:49;16.60;99.90
33023;DHT22;19390;51.460;5.710;2023-04-29T10:51:33;16.30;99.90
33023;DHT22;19390;51.460;5.710;2023-04-29T10:54:14;15.90;99.90
33023;DHT22;19390;51.460;5.710;2023-04-29T10:56:51;15.20;99.90
33023;DHT22;19390;51.460;5.710;2023-04-29T10:59:20;15.60;99.90
33023;DHT22;19390;51.460;5.710;2023-04-29T11:01:50;16.20;99.90
33023;DHT22;19390;51.460;5.710;2023-04-29T11:04:17;16.10;99.90
33023;DHT22;19390;51.460;5.710;2023-04-29T11:06:50;15.80;99.90
33023;DHT22;19390;51.460;5.710;2023-04-29T11:14:11;15.90;99.90
33023;DHT22;19390;51.460;5.710;2023-04-29T11:16:37;16.10;99.90
33023;DHT22;19390;51.460;5.710;2023-04-29T11:19:14;16.30;99.90
33023;DHT22;19390;51.460;5.710;2023-04-29T11:21:40;16.70;99.90
33023;DHT22;19390;51.460;5.710;2023-04-29T11:24:06;15.90;99.90
33023;DHT22;19390;51.460;5.710;2023-04-29T11:26:35;15.50;99.90
33023;DHT22;19390;51.460;5.710;2023-04-29T11:29:01;15.50;99.90
33023;DHT22;19390;51.460;5.710;2023-04-29T11:31:33;15.40;99.90
33023;DHT22;19390;51.460;5.710;2023-04-29T11:34:03;15.50;99.90
33023;DHT22;19390;51.460;5.710;2023-04-29T11:36:31;15.90;99.90
33023;DHT22;19390;51.460;5.710;2023-04-29T11:38:59;16.20;99.90
33023;DHT22;19390;51.460;5.710;2023-04-29T11:41:25;16.20;99.90
33023;DHT22;19390;51.460;5.710;2023-04-29T11:43:58;15.60;99.90
33023;DHT22;19390;51.460;5.710;2023-04-29T11:46:25;15.10;99.90
33023;DHT22;19390;51.460;5.710;2023-04-29T11:48:53;14.90;99.90
33023;DHT22;19390;51.460;5.710;2023-04-29T11:51:18;14.80;99.90
33023;DHT22;19390;51.460;5.710;2023-04-29T11:53:45;14.60;99.90
33023;DHT22;19390;51.460;5.710;2023-04-29T11:56:11;14.60;99.90
33023;DHT22;19390;51.460;5.710;2023-04-29T11:58:37;14.70;99.90
33023;DHT22;19390;51.460;5.710;2023-04-29T12:01:04;15.00;99.90
33023;DHT22;19390;51.460;5.710;2023-04-29T12:03:31;14.70;99.90
33023;DHT22;19390;51.460;5.710;2023-04-29T12:05:57;14.80;99.90
33023;DHT22;19390;51.460;5.710;2023-04-29T12:08:27;14.80;99.90
33023;DHT22;19390;51.460;5.710;2023-04-29T12:10:57;15.30;99.90
33023;DHT22;19390;51.460;5.710;2023-04-29T12:13:26;15.00;99.90
33023;DHT22;19390;51.460;5.710;2023-04-29T12:15:52;15.10;99.90
33023;DHT22;19390;51.460;5.710;2023-04-29T12:18:19;14.50;99.90
33023;DHT22;19390;51.460;5.710;2023-04-29T12:20:47;14.80;99.90
33023;DHT22;19390;51.460;5.710;2023-04-29T12:23:14;15.30;99.90
33023;DHT22;19390;51.460;5.710;2023-04-29T12:25:40;15.30;99.90
33023;DHT22;19390;51.460;5.710;2023-04-29T12:28:13;15.70;99.90
33023;DHT22;19390;51.460;5.710;2023-04-29T12:30:39;15.80;99.90
33023;DHT22;19390;51.460;5.710;2023-04-29T12:33:07;16.00;99.90
33023;DHT22;19390;51.460;5.710;2023-04-29T12:35:34;16.00;99.90
33023;DHT22;19390;51.460;5.710;2023-04-29T12:37:59;15.90;99.90
33023;DHT22;19390;51.460;5.710;2023-04-29T12:40:25;15.80;99.90
33023;DHT22;19390;51.460;5.710;2023-04-29T12:42:52;15.70;99.90
33023;DHT22;19390;51.460;5.710;2023-04-29T12:45:32;15.80;99.90
33023;DHT22;19390;51.460;5.710;2023-04-29T12:47:59;15.60;99.90
33023;DHT22;19390;51.460;5.710;2023-04-29T12:50:34;15.60;99.90
33023;DHT22;19390;51.460;5.710;2023-04-29T12:53:02;15.70;99.90
33023;DHT22;19390;51.460;5.710;2023-04-29T12:55:28;16.10;99.90
33023;DHT22;19390;51.460;5.710;2023-04-29T12:57:54;15.80;99.90
33023;DHT22;19390;51.460;5.710;2023-04-29T13:00:19;15.60;99.90
33023;DHT22;19390;51.460;5.710;2023-04-29T13:02:45;16.00;99.90
33023;DHT22;19390;51.460;5.710;2023-04-29T13:05:12;16.10;99.90
33023;DHT22;19390;51.460;5.710;2023-04-29T13:07:37;16.00;99.90
33023;DHT22;19390;51.460;5.710;2023-04-29T13:10:04;15.90;99.90
33023;DHT22;19390;51.460;5.710;2023-04-29T13:12:31;15.90;99.90
33023;DHT22;19390;51.460;5.710;2023-04-29T13:14:57;15.60;99.90
33023;DHT22;19390;51.460;5.710;2023-04-29T13:17:22;15.40;99.90
33023;DHT22;19390;51.460;5.710;2023-04-29T13:19:48;15.40;99.90
33023;DHT22;19390;51.460;5.710;2023-04-29T13:22:13;15.60;99.90
33023;DHT22;19390;51.460;5.710;2023-04-29T13:24:39;15.60;99.90
33023;DHT22;19390;51.460;5.710;2023-04-29T13:27:04;15.90;99.90
33023;DHT22;19390;51.460;5.710;2023-04-29T13:29:30;16.10;99.90
33023;DHT22;19390;51.460;5.710;2023-04-29T13:31:56;15.70;99.90
33023;DHT22;19390;51.460;5.710;2023-04-29T13:34:21;16.40;99.90
33023;DHT22;19390;51.460;5.710;2023-04-29T13:36:47;16.20;99.90
33023;DHT22;19390;51.460;5.710;2023-04-29T13:39:12;16.80;99.90
33023;DHT22;19390;51.460;5.710;2023-04-29T13:41:38;16.90;99.90
33023;DHT22;19390;51.460;5.710;2023-04-29T13:44:04;16.90;99.90
33023;DHT22;19390;51.460;5.710;2023-04-29T13:46:29;17.00;99.90
33023;DHT22;19390;51.460;5.710;2023-04-29T13:48:57;17.20;99.90
33023;DHT22;19390;51.460;5.710;2023-04-29T13:51:22;16.70;99.90
33023;DHT22;19390;51.460;5.710;2023-04-29T13:53:48;17.10;99.90
33023;DHT22;19390;51.460;5.710;2023-04-29T13:56:14;17.10;99.90
33023;DHT22;19390;51.460;5.710;2023-04-29T13:58:41;16.50;99.90
33023;DHT22;19390;51.460;5.710;2023-04-29T14:01:07;16.80;99.90
33023;DHT22;19390;51.460;5.710;2023-04-29T14:03:32;16.80;99.90
33023;DHT22;19390;51.460;5.710;2023-04-29T14:05:58;16.80;99.90
33023;DHT22;19390;51.460;5.710;2023-04-29T14:08:23;16.60;99.90
33023;DHT22;19390;51.460;5.710;2023-04-29T14:10:49;16.90;99.90
33023;DHT22;19390;51.460;5.710;2023-04-29T14:13:15;15.90;99.90
33023;DHT22;19390;51.460;5.710;2023-04-29T14:15:42;16.50;99.90
33023;DHT22;19390;51.460;5.710;2023-04-29T14:18:07;17.00;99.90
33023;DHT22;19390;51.460;5.710;2023-04-29T14:20:34;17.60;99.90
33023;DHT22;19390;51.460;5.710;2023-04-29T14:23:00;17.60;99.90
33023;DHT22;19390;51.460;5.710;2023-04-29T14:25:26;17.40;99.90
33023;DHT22;19390;51.460;5.710;2023-04-29T14:27:51;17.50;99.90
33023;DHT22;19390;51.460;5.710;2023-04-29T14:30:17;17.20;99.90
33023;DHT22;19390;51.460;5.710;2023-04-29T14:32:42;17.60;99.90
33023;DHT22;19390;51.460;5.710;2023-04-29T14:35:08;17.60;99.90
33023;DHT22;19390;51.460;5.710;2023-04-29T14:37:34;17.80;99.90
33023;DHT22;19390;51.460;5.710;2023-04-29T14:40:00;17.40;99.90
33023;DHT22;19390;51.460;5.710;2023-04-29T14:42:25;17.50;99.90
33023;DHT22;19390;51.460;5.710;2023-04-29T14:44:51;17.40;99.90
33023;DHT22;19390;51.460;5.710;2023-04-29T14:47:18;17.00;99.90
33023;DHT22;19390;51.460;5.710;2023-04-29T14:49:44;16.90;99.90
33023;DHT22;19390;51.460;5.710;2023-04-29T14:52:09;16.60;99.90
33023;DHT22;19390;51.460;5.710;2023-04-29T14:54:35;16.70;99.90
33023;DHT22;19390;51.460;5.710;2023-04-29T14:57:00;16.60;99.90
33023;DHT22;19390;51.460;5.710;2023-04-29T14:59:26;17.20;99.90
33023;DHT22;19390;51.460;5.710;2023-04-29T15:01:54;17.30;99.90
33023;DHT22;19390;51.460;5.710;2023-04-29T15:04:20;17.10;99.90
33023;DHT22;19390;51.460;5.710;2023-04-29T15:06:48;17.00;99.90
33023;DHT22;19390;51.460;5.710;2023-04-29T15:09:13;17.00;99.90
33023;DHT22;19390;51.460;5.710;2023-04-29T15:11:39;17.10;99.90
33023;DHT22;19390;51.460;5.710;2023-04-29T15:14:04;17.10;99.90
33023;DHT22;19390;51.460;5.710;2023-04-29T15:16:31;16.90;99.90
33023;DHT22;19390;51.460;5.710;2023-04-29T15:18:56;16.40;99.90
33023;DHT22;19390;51.460;5.710;2023-04-29T15:21:22;16.60;99.90
33023;DHT22;19390;51.460;5.710;2023-04-29T15:23:47;16.90;99.90
33023;DHT22;19390;51.460;5.710;2023-04-29T15:26:13;16.70;99.90
33023;DHT22;19390;51.460;5.710;2023-04-29T15:28:39;16.60;99.90
33023;DHT22;19390;51.460;5.710;2023-04-29T15:31:04;17.10;99.90
33023;DHT22;19390;51.460;5.710;2023-04-29T15:33:30;16.70;99.90
33023;DHT22;19390;51.460;5.710;2023-04-29T15:35:57;16.80;99.90
33023;DHT22;19390;51.460;5.710;2023-04-29T15:38:22;16.70;99.90
33023;DHT22;19390;51.460;5.710;2023-04-29T15:40:48;16.50;99.90
33023;DHT22;19390;51.460;5.710;2023-04-29T15:43:14;16.40;99.90
33023;DHT22;19390;51.460;5.710;2023-04-29T15:45:40;16.20;99.90
33023;DHT22;19390;51.460;5.710;2023-04-29T15:48:06;16.30;99.90
33023;DHT22;19390;51.460;5.710;2023-04-29T15:50:32;16.20;99.90
33023;DHT22;19390;51.460;5.710;2023-04-29T15:52:57;16.40;99.90
33023;DHT22;19390;51.460;5.710;2023-04-29T15:55:24;16.20;99.90